sensor_id;sensor_type;location;lat;lon;timestamp;P1;durP1;ratioP1;P2;durP2;ratioP2
68432;SDS011;55412;51.350;17.056;2022-12-07T00:01:44;5.00;;;1.83;;
68432;SDS011;55412;51.350;17.056;2022-12-07T00:04:12;4.63;;;1.30;;
68432;SDS011;55412;51.350;17.056;2022-12-07T00:06:41;5.13;;;1.47;;
68432;SDS011;55412;51.350;17.056;2022-12-07T00:09:10;5.20;;;1.73;;
68432;SDS011;55412;51.350;17.056;2022-12-07T00:11:41;5.38;;;1.67;;
68432;SDS011;55412;51.350;17.056;2022-12-07T00:14:10;5.70;;;1.45;;
68432;SDS011;55412;51.350;17.056;2022-12-07T00:16:39;4.70;;;1.38;;
68432;SDS011;55412;51.350;17.056;2022-12-07T00:19:06;4.73;;;1.20;;
68432;SDS011;55412;51.350;17.056;2022-12-07T00:21:33;4.55;;;1.27;;
68432;SDS011;55412;51.350;17.056;2022-12-07T00:24:01;6.97;;;1.88;;
68432;SDS011;55412;51.350;17.056;2022-12-07T00:26:30;4.82;;;1.02;;
68432;SDS011;55412;51.350;17.056;2022-12-07T00:29:00;5.43;;;1.85;;
68432;SDS011;55412;51.350;17.056;2022-12-07T00:31:34;5.00;;;1.07;;
68432;SDS011;55412;51.350;17.056;2022-12-07T00:34:04;3.53;;;0.73;;
68432;SDS011;55412;51.350;17.056;2022-12-07T00:36:32;4.53;;;1.15;;
68432;SDS011;55412;51.350;17.056;2022-12-07T00:38:58;5.35;;;1.45;;
68432;SDS011;55412;51.350;17.056;2022-12-07T00:41:26;5.05;;;1.42;;
68432;SDS011;55412;51.350;17.056;2022-12-07T00:43:54;4.93;;;1.30;;
68432;SDS011;55412;51.350;17.056;2022-12-07T00:46:20;5.32;;;1.55;;
68432;SDS011;55412;51.350;17.056;2022-12-07T00:48:47;4.75;;;1.38;;
68432;SDS011;55412;51.350;17.056;2022-12-07T00:51:15;4.85;;;1.23;;
68432;SDS011;55412;51.350;17.056;2022-12-07T00:53:43;5.00;;;1.45;;
68432;SDS011;55412;51.350;17.056;2022-12-07T00:56:14;6.77;;;1.50;;
68432;SDS011;55412;51.350;17.056;2022-12-07T00:58:42;4.03;;;1.40;;
68432;SDS011;55412;51.350;17.056;2022-12-07T01:01:09;4.40;;;1.20;;
68432;SDS011;55412;51.350;17.056;2022-12-07T01:03:36;3.95;;;1.10;;
68432;SDS011;55412;51.350;17.056;2022-12-07T01:06:03;4.45;;;1.15;;
68432;SDS011;55412;51.350;17.056;2022-12-07T01:08:30;5.17;;;1.30;;
68432;SDS011;55412;51.350;17.056;2022-12-07T01:11:07;4.50;;;1.27;;
68432;SDS011;55412;51.350;17.056;2022-12-07T01:13:35;3.33;;;0.65;;
68432;SDS011;55412;51.350;17.056;2022-12-07T01:16:02;4.85;;;1.08;;
68432;SDS011;55412;51.350;17.056;2022-12-07T01:18:33;4.20;;;0.95;;
68432;SDS011;55412;51.350;17.056;2022-12-07T01:21:01;4.00;;;1.13;;
68432;SDS011;55412;51.350;17.056;2022-12-07T01:23:31;4.88;;;1.17;;
68432;SDS011;55412;51.350;17.056;2022-12-07T01:25:59;3.85;;;0.70;;
68432;SDS011;55412;51.350;17.056;2022-12-07T01:28:28;3.20;;;0.90;;
68432;SDS011;55412;51.350;17.056;2022-12-07T01:30:59;3.22;;;0.82;;
68432;SDS011;55412;51.350;17.056;2022-12-07T01:33:32;3.30;;;0.60;;
68432;SDS011;55412;51.350;17.056;2022-12-07T01:36:02;4.47;;;0.75;;
68432;SDS011;55412;51.350;17.056;2022-12-07T01:38:31;2.47;;;0.57;;
68432;SDS011;55412;51.350;17.056;2022-12-07T01:40:58;3.08;;;0.50;;
68432;SDS011;55412;51.350;17.056;2022-12-07T01:43:26;3.97;;;0.77;;
68432;SDS011;55412;51.350;17.056;2022-12-07T01:45:55;4.10;;;0.80;;
68432;SDS011;55412;51.350;17.056;2022-12-07T01:48:23;3.15;;;0.68;;
68432;SDS011;55412;51.350;17.056;2022-12-07T01:51:10;3.53;;;0.80;;
68432;SDS011;55412;51.350;17.056;2022-12-07T01:53:40;7.25;;;1.08;;
68432;SDS011;55412;51.350;17.056;2022-12-07T01:56:11;4.63;;;1.05;;
68432;SDS011;55412;51.350;17.056;2022-12-07T01:58:42;4.67;;;0.87;;
68432;SDS011;55412;51.350;17.056;2022-12-07T02:01:09;4.78;;;1.00;;
68432;SDS011;55412;51.350;17.056;2022-12-07T02:03:37;3.42;;;0.50;;
68432;SDS011;55412;51.350;17.056;2022-12-07T02:06:07;3.40;;;0.65;;
68432;SDS011;55412;51.350;17.056;2022-12-07T02:08:35;2.90;;;0.60;;
68432;SDS011;55412;51.350;17.056;2022-12-07T02:11:02;4.00;;;0.90;;
68432;SDS011;55412;51.350;17.056;2022-12-07T02:13:31;3.22;;;0.52;;
68432;SDS011;55412;51.350;17.056;2022-12-07T02:16:08;3.15;;;0.60;;
68432;SDS011;55412;51.350;17.056;2022-12-07T02:24:42;3.47;;;0.70;;
68432;SDS011;55412;51.350;17.056;2022-12-07T02:30:17;2.90;;;0.40;;
68432;SDS011;55412;51.350;17.056;2022-12-07T02:35:35;2.38;;;0.40;;
68432;SDS011;55412;51.350;17.056;2022-12-07T02:38:16;2.07;;;0.30;;
68432;SDS011;55412;51.350;17.056;2022-12-07T02:40:55;3.20;;;0.30;;
68432;SDS011;55412;51.350;17.056;2022-12-07T02:43:31;2.80;;;0.30;;
68432;SDS011;55412;51.350;17.056;2022-12-07T02:46:08;2.85;;;0.40;;
68432;SDS011;55412;51.350;17.056;2022-12-07T02:48:39;2.95;;;0.28;;
68432;SDS011;55412;51.350;17.056;2022-12-07T02:51:08;1.73;;;0.10;;
68432;SDS011;55412;51.350;17.056;2022-12-07T02:56:16;2.25;;;0.22;;
68432;SDS011;55412;51.350;17.056;2022-12-07T02:59:14;3.42;;;0.30;;
68432;SDS011;55412;51.350;17.056;2022-12-07T03:05:36;2.53;;;0.33;;
68432;SDS011;55412;51.350;17.056;2022-12-07T03:08:29;2.05;;;0.20;;
68432;SDS011;55412;51.350;17.056;2022-12-07T03:11:13;2.40;;;0.20;;
68432;SDS011;55412;51.350;17.056;2022-12-07T03:13:59;1.90;;;0.30;;
68432;SDS011;55412;51.350;17.056;2022-12-07T03:16:50;2.47;;;0.20;;
68432;SDS011;55412;51.350;17.056;2022-12-07T03:19:32;1.37;;;0.20;;
68432;SDS011;55412;51.350;17.056;2022-12-07T03:22:01;2.13;;;0.30;;
68432;SDS011;55412;51.350;17.056;2022-12-07T03:24:37;4.63;;;0.30;;
68432;SDS011;55412;51.350;17.056;2022-12-07T03:30:26;1.55;;;0.10;;
68432;SDS011;55412;51.350;17.056;2022-12-07T03:32:34;2.83;;;0.20;;
68432;SDS011;55412;51.350;17.056;2022-12-07T03:35:19;1.65;;;0.20;;
68432;SDS011;55412;51.350;17.056;2022-12-07T03:40:44;1.65;;;0.17;;
68432;SDS011;55412;51.350;17.056;2022-12-07T03:43:20;2.53;;;0.20;;
68432;SDS011;55412;51.350;17.056;2022-12-07T03:51:23;2.10;;;0.20;;
68432;SDS011;55412;51.350;17.056;2022-12-07T03:54:01;2.20;;;0.25;;
68432;SDS011;55412;51.350;17.056;2022-12-07T03:56:44;3.13;;;0.20;;
68432;SDS011;55412;51.350;17.056;2022-12-07T03:59:12;1.83;;;0.20;;
68432;SDS011;55412;51.350;17.056;2022-12-07T04:01:41;1.67;;;0.20;;
68432;SDS011;55412;51.350;17.056;2022-12-07T04:04:09;1.48;;;0.15;;
68432;SDS011;55412;51.350;17.056;2022-12-07T04:06:36;1.52;;;0.10;;
68432;SDS011;55412;51.350;17.056;2022-12-07T04:09:02;1.23;;;0.10;;
68432;SDS011;55412;51.350;17.056;2022-12-07T04:11:28;1.17;;;0.10;;
68432;SDS011;55412;51.350;17.056;2022-12-07T04:13:54;2.47;;;0.30;;
68432;SDS011;55412;51.350;17.056;2022-12-07T04:16:39;2.55;;;0.10;;
68432;SDS011;55412;51.350;17.056;2022-12-07T04:19:05;1.42;;;0.20;;
68432;SDS011;55412;51.350;17.056;2022-12-07T04:21:31;1.50;;;0.10;;
68432;SDS011;55412;51.350;17.056;2022-12-07T04:23:57;2.60;;;0.20;;
68432;SDS011;55412;51.350;17.056;2022-12-07T04:26:23;1.13;;;0.10;;
68432;SDS011;55412;51.350;17.056;2022-12-07T04:28:49;0.80;;;0.00;;
68432;SDS011;55412;51.350;17.056;2022-12-07T04:31:15;1.10;;;0.10;;
68432;SDS011;55412;51.350;17.056;2022-12-07T04:33:41;2.50;;;0.10;;
68432;SDS011;55412;51.350;17.056;2022-12-07T04:36:07;1.80;;;0.10;;
68432;SDS011;55412;51.350;17.056;2022-12-07T04:38:33;1.98;;;0.10;;
68432;SDS011;55412;51.350;17.056;2022-12-07T04:41:03;2.88;;;0.20;;
68432;SDS011;55412;51.350;17.056;2022-12-07T04:43:31;2.97;;;0.10;;
68432;SDS011;55412;51.350;17.056;2022-12-07T04:45:58;1.45;;;0.10;;
68432;SDS011;55412;51.350;17.056;2022-12-07T04:48:24;1.50;;;0.15;;
68432;SDS011;55412;51.350;17.056;2022-12-07T04:50:50;2.50;;;0.20;;
68432;SDS011;55412;51.350;17.056;2022-12-07T04:53:16;1.48;;;0.13;;
68432;SDS011;55412;51.350;17.056;2022-12-07T04:55:42;3.53;;;0.30;;
68432;SDS011;55412;51.350;17.056;2022-12-07T04:58:09;1.55;;;0.10;;
68432;SDS011;55412;51.350;17.056;2022-12-07T05:00:35;1.80;;;0.13;;
68432;SDS011;55412;51.350;17.056;2022-12-07T05:03:02;1.58;;;0.20;;
68432;SDS011;55412;51.350;17.056;2022-12-07T05:05:28;1.08;;;0.10;;
68432;SDS011;55412;51.350;17.056;2022-12-07T05:07:54;1.80;;;0.20;;
68432;SDS011;55412;51.350;17.056;2022-12-07T05:10:20;1.00;;;0.10;;
68432;SDS011;55412;51.350;17.056;2022-12-07T05:12:46;1.73;;;0.10;;
68432;SDS011;55412;51.350;17.056;2022-12-07T05:15:13;1.95;;;0.20;;
68432;SDS011;55412;51.350;17.056;2022-12-07T05:17:40;1.77;;;0.10;;
68432;SDS011;55412;51.350;17.056;2022-12-07T05:20:06;1.13;;;0.10;;
68432;SDS011;55412;51.350;17.056;2022-12-07T05:22:33;0.95;;;0.10;;
68432;SDS011;55412;51.350;17.056;2022-12-07T05:25:00;1.27;;;0.00;;
68432;SDS011;55412;51.350;17.056;2022-12-07T05:27:26;1.15;;;0.10;;
68432;SDS011;55412;51.350;17.056;2022-12-07T05:29:52;1.60;;;0.20;;
68432;SDS011;55412;51.350;17.056;2022-12-07T05:32:18;1.20;;;0.10;;
68432;SDS011;55412;51.350;17.056;2022-12-07T05:34:44;1.55;;;0.20;;
68432;SDS011;55412;51.350;17.056;2022-12-07T05:37:11;2.13;;;0.10;;
68432;SDS011;55412;51.350;17.056;2022-12-07T05:39:37;1.23;;;0.10;;
68432;SDS011;55412;51.350;17.056;2022-12-07T05:42:06;1.60;;;0.20;;
68432;SDS011;55412;51.350;17.056;2022-12-07T05:44:42;1.83;;;0.17;;
68432;SDS011;55412;51.350;17.056;2022-12-07T05:47:11;2.10;;;0.20;;
68432;SDS011;55412;51.350;17.056;2022-12-07T05:49:39;2.55;;;0.40;;
68432;SDS011;55412;51.350;17.056;2022-12-07T05:52:05;2.80;;;0.40;;
68432;SDS011;55412;51.350;17.056;2022-12-07T05:54:31;2.03;;;0.30;;
68432;SDS011;55412;51.350;17.056;2022-12-07T05:56:58;2.97;;;0.63;;
68432;SDS011;55412;51.350;17.056;2022-12-07T05:59:24;3.15;;;0.60;;
68432;SDS011;55412;51.350;17.056;2022-12-07T06:01:53;2.67;;;0.43;;
68432;SDS011;55412;51.350;17.056;2022-12-07T06:04:23;3.70;;;0.80;;
68432;SDS011;55412;51.350;17.056;2022-12-07T06:06:51;3.30;;;0.80;;
68432;SDS011;55412;51.350;17.056;2022-12-07T06:09:19;4.20;;;1.30;;
68432;SDS011;55412;51.350;17.056;2022-12-07T06:11:46;5.93;;;1.38;;
68432;SDS011;55412;51.350;17.056;2022-12-07T06:14:32;5.35;;;1.35;;
68432;SDS011;55412;51.350;17.056;2022-12-07T06:16:58;5.22;;;1.25;;
68432;SDS011;55412;51.350;17.056;2022-12-07T06:19:24;4.90;;;1.53;;
68432;SDS011;55412;51.350;17.056;2022-12-07T06:21:50;6.32;;;2.03;;
68432;SDS011;55412;51.350;17.056;2022-12-07T06:24:17;4.88;;;1.90;;
68432;SDS011;55412;51.350;17.056;2022-12-07T06:26:43;5.43;;;1.80;;
68432;SDS011;55412;51.350;17.056;2022-12-07T06:29:10;5.82;;;1.75;;
68432;SDS011;55412;51.350;17.056;2022-12-07T06:31:37;7.00;;;2.33;;
68432;SDS011;55412;51.350;17.056;2022-12-07T06:34:04;6.35;;;1.90;;
68432;SDS011;55412;51.350;17.056;2022-12-07T06:36:35;6.78;;;2.25;;
68432;SDS011;55412;51.350;17.056;2022-12-07T06:39:01;4.88;;;1.45;;
68432;SDS011;55412;51.350;17.056;2022-12-07T06:41:28;6.07;;;2.00;;
68432;SDS011;55412;51.350;17.056;2022-12-07T06:43:54;6.57;;;2.17;;
68432;SDS011;55412;51.350;17.056;2022-12-07T06:46:20;5.70;;;2.15;;
68432;SDS011;55412;51.350;17.056;2022-12-07T06:48:46;7.25;;;1.77;;
68432;SDS011;55412;51.350;17.056;2022-12-07T06:51:12;5.68;;;1.77;;
68432;SDS011;55412;51.350;17.056;2022-12-07T06:53:38;5.72;;;1.85;;
68432;SDS011;55412;51.350;17.056;2022-12-07T06:56:04;8.07;;;2.30;;
68432;SDS011;55412;51.350;17.056;2022-12-07T06:58:31;6.43;;;2.30;;
68432;SDS011;55412;51.350;17.056;2022-12-07T07:00:57;5.80;;;2.08;;
68432;SDS011;55412;51.350;17.056;2022-12-07T07:03:24;7.25;;;2.63;;
68432;SDS011;55412;51.350;17.056;2022-12-07T07:05:50;8.20;;;2.53;;
68432;SDS011;55412;51.350;17.056;2022-12-07T07:08:16;5.77;;;2.10;;
68432;SDS011;55412;51.350;17.056;2022-12-07T07:10:42;5.53;;;2.28;;
68432;SDS011;55412;51.350;17.056;2022-12-07T07:13:08;5.63;;;2.17;;
68432;SDS011;55412;51.350;17.056;2022-12-07T07:15:34;6.93;;;1.92;;
68432;SDS011;55412;51.350;17.056;2022-12-07T07:18:03;9.70;;;2.23;;
68432;SDS011;55412;51.350;17.056;2022-12-07T07:20:29;5.90;;;1.80;;
68432;SDS011;55412;51.350;17.056;2022-12-07T07:22:55;5.63;;;2.15;;
68432;SDS011;55412;51.350;17.056;2022-12-07T07:25:22;8.00;;;2.17;;
68432;SDS011;55412;51.350;17.056;2022-12-07T07:27:48;7.20;;;2.95;;
68432;SDS011;55412;51.350;17.056;2022-12-07T07:30:14;4.87;;;1.63;;
68432;SDS011;55412;51.350;17.056;2022-12-07T07:32:40;5.72;;;1.55;;
68432;SDS011;55412;51.350;17.056;2022-12-07T07:35:06;4.32;;;1.48;;
68432;SDS011;55412;51.350;17.056;2022-12-07T07:37:33;4.65;;;1.50;;
68432;SDS011;55412;51.350;17.056;2022-12-07T07:39:59;6.53;;;1.58;;
68432;SDS011;55412;51.350;17.056;2022-12-07T07:42:25;4.33;;;1.33;;
68432;SDS011;55412;51.350;17.056;2022-12-07T07:44:51;4.70;;;1.38;;
68432;SDS011;55412;51.350;17.056;2022-12-07T07:47:17;4.55;;;1.00;;
68432;SDS011;55412;51.350;17.056;2022-12-07T07:49:43;5.25;;;1.00;;
68432;SDS011;55412;51.350;17.056;2022-12-07T07:52:09;5.00;;;1.48;;
68432;SDS011;55412;51.350;17.056;2022-12-07T07:54:35;5.27;;;1.37;;
68432;SDS011;55412;51.350;17.056;2022-12-07T07:57:01;5.30;;;1.10;;
68432;SDS011;55412;51.350;17.056;2022-12-07T07:59:27;3.80;;;0.70;;
68432;SDS011;55412;51.350;17.056;2022-12-07T08:01:53;4.25;;;1.05;;
68432;SDS011;55412;51.350;17.056;2022-12-07T08:04:19;4.18;;;1.23;;
68432;SDS011;55412;51.350;17.056;2022-12-07T08:06:45;4.97;;;1.07;;
68432;SDS011;55412;51.350;17.056;2022-12-07T08:09:11;7.15;;;1.35;;
68432;SDS011;55412;51.350;17.056;2022-12-07T08:11:37;4.95;;;1.50;;
68432;SDS011;55412;51.350;17.056;2022-12-07T08:14:03;5.38;;;1.58;;
68432;SDS011;55412;51.350;17.056;2022-12-07T08:16:29;5.87;;;2.40;;
68432;SDS011;55412;51.350;17.056;2022-12-07T08:18:55;7.50;;;1.63;;
68432;SDS011;55412;51.350;17.056;2022-12-07T08:21:21;6.38;;;2.28;;
68432;SDS011;55412;51.350;17.056;2022-12-07T08:23:47;6.68;;;2.17;;
68432;SDS011;55412;51.350;17.056;2022-12-07T08:26:15;6.13;;;1.98;;
68432;SDS011;55412;51.350;17.056;2022-12-07T08:28:42;7.13;;;2.63;;
68432;SDS011;55412;51.350;17.056;2022-12-07T08:31:11;6.25;;;2.50;;
68432;SDS011;55412;51.350;17.056;2022-12-07T08:33:40;6.65;;;2.50;;
68432;SDS011;55412;51.350;17.056;2022-12-07T08:36:08;8.40;;;3.10;;
68432;SDS011;55412;51.350;17.056;2022-12-07T08:38:37;6.45;;;2.50;;
68432;SDS011;55412;51.350;17.056;2022-12-07T08:41:05;5.87;;;2.37;;
68432;SDS011;55412;51.350;17.056;2022-12-07T08:43:32;8.15;;;2.95;;
68432;SDS011;55412;51.350;17.056;2022-12-07T08:51:43;10.05;;;2.78;;
68432;SDS011;55412;51.350;17.056;2022-12-07T08:54:11;6.13;;;2.10;;
68432;SDS011;55412;51.350;17.056;2022-12-07T08:56:40;8.90;;;3.20;;
68432;SDS011;55412;51.350;17.056;2022-12-07T08:59:07;6.88;;;2.50;;
68432;SDS011;55412;51.350;17.056;2022-12-07T09:01:33;7.63;;;2.70;;
68432;SDS011;55412;51.350;17.056;2022-12-07T09:03:59;6.67;;;2.30;;
68432;SDS011;55412;51.350;17.056;2022-12-07T09:06:25;7.20;;;2.47;;
68432;SDS011;55412;51.350;17.056;2022-12-07T09:08:53;8.48;;;2.63;;
68432;SDS011;55412;51.350;17.056;2022-12-07T09:11:23;9.77;;;3.40;;
68432;SDS011;55412;51.350;17.056;2022-12-07T09:13:49;8.85;;;3.13;;
68432;SDS011;55412;51.350;17.056;2022-12-07T09:16:15;8.00;;;3.23;;
68432;SDS011;55412;51.350;17.056;2022-12-07T09:18:41;7.67;;;2.43;;
68432;SDS011;55412;51.350;17.056;2022-12-07T09:21:07;8.00;;;3.15;;
68432;SDS011;55412;51.350;17.056;2022-12-07T09:23:34;8.45;;;3.80;;
68432;SDS011;55412;51.350;17.056;2022-12-07T09:26:01;8.30;;;3.08;;
68432;SDS011;55412;51.350;17.056;2022-12-07T09:28:28;7.80;;;3.13;;
68432;SDS011;55412;51.350;17.056;2022-12-07T09:30:55;7.70;;;2.87;;
68432;SDS011;55412;51.350;17.056;2022-12-07T09:33:21;10.02;;;3.83;;
68432;SDS011;55412;51.350;17.056;2022-12-07T09:35:48;7.72;;;3.13;;
68432;SDS011;55412;51.350;17.056;2022-12-07T09:38:15;7.20;;;2.60;;
68432;SDS011;55412;51.350;17.056;2022-12-07T09:40:42;7.13;;;2.23;;
68432;SDS011;55412;51.350;17.056;2022-12-07T09:43:12;7.75;;;3.30;;
68432;SDS011;55412;51.350;17.056;2022-12-07T09:45:44;10.48;;;3.70;;
68432;SDS011;55412;51.350;17.056;2022-12-07T09:48:37;8.68;;;3.33;;
68432;SDS011;55412;51.350;17.056;2022-12-07T09:51:37;6.30;;;2.53;;
68432;SDS011;55412;51.350;17.056;2022-12-07T09:53:57;8.47;;;2.70;;
68432;SDS011;55412;51.350;17.056;2022-12-07T09:56:24;8.48;;;3.28;;
68432;SDS011;55412;51.350;17.056;2022-12-07T09:58:51;6.57;;;2.50;;
68432;SDS011;55412;51.350;17.056;2022-12-07T10:01:29;7.00;;;2.80;;
68432;SDS011;55412;51.350;17.056;2022-12-07T10:06:47;6.77;;;2.60;;
68432;SDS011;55412;51.350;17.056;2022-12-07T10:09:16;7.28;;;2.65;;
68432;SDS011;55412;51.350;17.056;2022-12-07T10:12:01;7.20;;;2.50;;
68432;SDS011;55412;51.350;17.056;2022-12-07T10:14:37;8.48;;;3.17;;
68432;SDS011;55412;51.350;17.056;2022-12-07T10:17:29;11.68;;;3.15;;
68432;SDS011;55412;51.350;17.056;2022-12-07T10:22:57;7.57;;;2.70;;
68432;SDS011;55412;51.350;17.056;2022-12-07T10:25:33;7.00;;;2.33;;
68432;SDS011;55412;51.350;17.056;2022-12-07T10:30:54;7.38;;;2.47;;
68432;SDS011;55412;51.350;17.056;2022-12-07T10:33:30;6.80;;;2.40;;
68432;SDS011;55412;51.350;17.056;2022-12-07T10:36:17;7.10;;;2.22;;
68432;SDS011;55412;51.350;17.056;2022-12-07T10:39:02;6.57;;;2.00;;
68432;SDS011;55412;51.350;17.056;2022-12-07T10:44:29;5.53;;;1.48;;
68432;SDS011;55412;51.350;17.056;2022-12-07T10:58:53;5.13;;;1.38;;
68432;SDS011;55412;51.350;17.056;2022-12-07T11:12:09;6.85;;;1.90;;
68432;SDS011;55412;51.350;17.056;2022-12-07T11:14:58;4.80;;;1.30;;
68432;SDS011;55412;51.350;17.056;2022-12-07T11:18:01;6.53;;;1.90;;
68432;SDS011;55412;51.350;17.056;2022-12-07T11:20:45;6.28;;;1.90;;
68432;SDS011;55412;51.350;17.056;2022-12-07T11:23:56;4.93;;;1.58;;
68432;SDS011;55412;51.350;17.056;2022-12-07T11:32:53;5.88;;;1.75;;
68432;SDS011;55412;51.350;17.056;2022-12-07T11:41:33;7.50;;;1.40;;
68432;SDS011;55412;51.350;17.056;2022-12-07T11:44:25;4.03;;;1.07;;
68432;SDS011;55412;51.350;17.056;2022-12-07T11:47:13;5.20;;;1.50;;
68432;SDS011;55412;51.350;17.056;2022-12-07T11:49:53;5.25;;;1.60;;
68432;SDS011;55412;51.350;17.056;2022-12-07T11:53:01;6.78;;;2.05;;
68432;SDS011;55412;51.350;17.056;2022-12-07T11:55:41;5.80;;;2.13;;
68432;SDS011;55412;51.350;17.056;2022-12-07T11:58:35;5.60;;;2.03;;
68432;SDS011;55412;51.350;17.056;2022-12-07T12:07:06;7.00;;;1.60;;
68432;SDS011;55412;51.350;17.056;2022-12-07T12:09:34;6.47;;;1.45;;
68432;SDS011;55412;51.350;17.056;2022-12-07T12:12:21;6.00;;;1.60;;
68432;SDS011;55412;51.350;17.056;2022-12-07T12:15:28;6.15;;;1.95;;
68432;SDS011;55412;51.350;17.056;2022-12-07T12:21:12;5.60;;;1.30;;
68432;SDS011;55412;51.350;17.056;2022-12-07T12:23:43;4.32;;;1.48;;
68432;SDS011;55412;51.350;17.056;2022-12-07T12:26:15;5.93;;;1.67;;
68432;SDS011;55412;51.350;17.056;2022-12-07T12:29:18;4.50;;;1.63;;
68432;SDS011;55412;51.350;17.056;2022-12-07T12:42:44;4.40;;;1.35;;
68432;SDS011;55412;51.350;17.056;2022-12-07T12:45:26;6.20;;;1.70;;
68432;SDS011;55412;51.350;17.056;2022-12-07T12:50:35;7.35;;;1.42;;
68432;SDS011;55412;51.350;17.056;2022-12-07T12:53:14;5.30;;;1.87;;
68432;SDS011;55412;51.350;17.056;2022-12-07T12:58:49;4.75;;;1.33;;
68432;SDS011;55412;51.350;17.056;2022-12-07T13:01:48;4.32;;;1.30;;
68432;SDS011;55412;51.350;17.056;2022-12-07T13:04:18;6.60;;;1.70;;
68432;SDS011;55412;51.350;17.056;2022-12-07T13:06:54;4.33;;;1.30;;
68432;SDS011;55412;51.350;17.056;2022-12-07T13:09:30;5.10;;;1.00;;
68432;SDS011;55412;51.350;17.056;2022-12-07T13:12:01;7.72;;;1.67;;
68432;SDS011;55412;51.350;17.056;2022-12-07T13:17:12;4.05;;;1.27;;
68432;SDS011;55412;51.350;17.056;2022-12-07T13:20:01;6.13;;;1.37;;
68432;SDS011;55412;51.350;17.056;2022-12-07T13:28:00;5.63;;;1.17;;
68432;SDS011;55412;51.350;17.056;2022-12-07T13:30:56;4.07;;;1.27;;
68432;SDS011;55412;51.350;17.056;2022-12-07T13:33:39;5.27;;;1.20;;
68432;SDS011;55412;51.350;17.056;2022-12-07T13:36:27;7.72;;;1.30;;
68432;SDS011;55412;51.350;17.056;2022-12-07T13:39:10;5.35;;;1.27;;
68432;SDS011;55412;51.350;17.056;2022-12-07T13:41:43;7.68;;;0.88;;
68432;SDS011;55412;51.350;17.056;2022-12-07T13:44:14;5.20;;;1.45;;
68432;SDS011;55412;51.350;17.056;2022-12-07T13:49:25;6.55;;;0.88;;
68432;SDS011;55412;51.350;17.056;2022-12-07T13:51:55;5.88;;;1.35;;
68432;SDS011;55412;51.350;17.056;2022-12-07T13:54:55;3.70;;;0.75;;
68432;SDS011;55412;51.350;17.056;2022-12-07T13:57:26;4.32;;;1.13;;
68432;SDS011;55412;51.350;17.056;2022-12-07T13:59:55;4.70;;;1.00;;
68432;SDS011;55412;51.350;17.056;2022-12-07T14:08:03;3.67;;;0.90;;
68432;SDS011;55412;51.350;17.056;2022-12-07T14:10:52;6.95;;;1.10;;
68432;SDS011;55412;51.350;17.056;2022-12-07T14:16:54;6.15;;;1.25;;
68432;SDS011;55412;51.350;17.056;2022-12-07T14:18:58;4.05;;;1.02;;
68432;SDS011;55412;51.350;17.056;2022-12-07T14:21:32;5.05;;;0.95;;
68432;SDS011;55412;51.350;17.056;2022-12-07T14:24:04;5.15;;;1.20;;
68432;SDS011;55412;51.350;17.056;2022-12-07T14:26:41;5.70;;;1.57;;
68432;SDS011;55412;51.350;17.056;2022-12-07T14:29:21;3.85;;;0.88;;
68432;SDS011;55412;51.350;17.056;2022-12-07T14:31:50;5.70;;;1.20;;
68432;SDS011;55412;51.350;17.056;2022-12-07T14:34:19;4.75;;;1.17;;
68432;SDS011;55412;51.350;17.056;2022-12-07T14:36:46;4.30;;;1.13;;
68432;SDS011;55412;51.350;17.056;2022-12-07T14:39:12;4.27;;;0.93;;
68432;SDS011;55412;51.350;17.056;2022-12-07T14:41:38;4.65;;;1.10;;
68432;SDS011;55412;51.350;17.056;2022-12-07T14:44:17;3.13;;;0.77;;
68432;SDS011;55412;51.350;17.056;2022-12-07T14:46:46;6.22;;;1.00;;
68432;SDS011;55412;51.350;17.056;2022-12-07T14:49:13;4.15;;;1.02;;
68432;SDS011;55412;51.350;17.056;2022-12-07T14:51:39;6.10;;;1.17;;
68432;SDS011;55412;51.350;17.056;2022-12-07T14:54:12;8.27;;;0.95;;
68432;SDS011;55412;51.350;17.056;2022-12-07T14:56:43;4.80;;;0.90;;
68432;SDS011;55412;51.350;17.056;2022-12-07T14:59:11;4.00;;;1.08;;
68432;SDS011;55412;51.350;17.056;2022-12-07T15:01:37;6.05;;;1.27;;
68432;SDS011;55412;51.350;17.056;2022-12-07T15:04:04;5.17;;;1.20;;
68432;SDS011;55412;51.350;17.056;2022-12-07T15:06:30;4.72;;;0.98;;
68432;SDS011;55412;51.350;17.056;2022-12-07T15:08:56;4.63;;;1.02;;
68432;SDS011;55412;51.350;17.056;2022-12-07T15:11:22;4.72;;;1.25;;
68432;SDS011;55412;51.350;17.056;2022-12-07T15:13:48;4.65;;;1.02;;
68432;SDS011;55412;51.350;17.056;2022-12-07T15:16:32;6.87;;;2.23;;
68432;SDS011;55412;51.350;17.056;2022-12-07T15:18:59;5.53;;;1.33;;
68432;SDS011;55412;51.350;17.056;2022-12-07T15:21:25;6.13;;;1.10;;
68432;SDS011;55412;51.350;17.056;2022-12-07T15:23:51;4.85;;;1.55;;
68432;SDS011;55412;51.350;17.056;2022-12-07T15:26:18;5.78;;;0.90;;
68432;SDS011;55412;51.350;17.056;2022-12-07T15:28:44;3.70;;;1.00;;
68432;SDS011;55412;51.350;17.056;2022-12-07T15:31:11;4.43;;;0.77;;
68432;SDS011;55412;51.350;17.056;2022-12-07T15:33:41;4.72;;;0.90;;
68432;SDS011;55412;51.350;17.056;2022-12-07T15:36:08;5.68;;;1.05;;
68432;SDS011;55412;51.350;17.056;2022-12-07T15:38:47;4.85;;;1.15;;
68432;SDS011;55412;51.350;17.056;2022-12-07T15:41:13;5.50;;;0.97;;
68432;SDS011;55412;51.350;17.056;2022-12-07T15:43:40;4.57;;;0.60;;
68432;SDS011;55412;51.350;17.056;2022-12-07T15:46:29;4.15;;;1.08;;
68432;SDS011;55412;51.350;17.056;2022-12-07T15:48:56;4.15;;;1.00;;
68432;SDS011;55412;51.350;17.056;2022-12-07T15:51:23;3.22;;;0.75;;
68432;SDS011;55412;51.350;17.056;2022-12-07T15:53:49;3.80;;;0.77;;
68432;SDS011;55412;51.350;17.056;2022-12-07T15:56:15;4.18;;;0.63;;
68432;SDS011;55412;51.350;17.056;2022-12-07T15:58:42;4.13;;;0.63;;
68432;SDS011;55412;51.350;17.056;2022-12-07T16:01:14;5.18;;;1.10;;
68432;SDS011;55412;51.350;17.056;2022-12-07T16:03:45;3.75;;;0.70;;
68432;SDS011;55412;51.350;17.056;2022-12-07T16:06:12;5.50;;;0.90;;
68432;SDS011;55412;51.350;17.056;2022-12-07T16:08:43;3.92;;;0.80;;
68432;SDS011;55412;51.350;17.056;2022-12-07T16:11:11;4.10;;;0.80;;
68432;SDS011;55412;51.350;17.056;2022-12-07T16:13:37;4.78;;;1.20;;
68432;SDS011;55412;51.350;17.056;2022-12-07T16:16:05;5.10;;;1.17;;
68432;SDS011;55412;51.350;17.056;2022-12-07T16:18:33;3.33;;;0.60;;
68432;SDS011;55412;51.350;17.056;2022-12-07T16:20:59;6.97;;;1.23;;
68432;SDS011;55412;51.350;17.056;2022-12-07T16:23:26;6.00;;;0.82;;
68432;SDS011;55412;51.350;17.056;2022-12-07T16:25:52;3.90;;;1.23;;
68432;SDS011;55412;51.350;17.056;2022-12-07T16:28:18;8.50;;;1.17;;
68432;SDS011;55412;51.350;17.056;2022-12-07T16:30:45;5.37;;;1.10;;
68432;SDS011;55412;51.350;17.056;2022-12-07T16:33:11;6.50;;;0.80;;
68432;SDS011;55412;51.350;17.056;2022-12-07T16:35:40;3.35;;;0.50;;
68432;SDS011;55412;51.350;17.056;2022-12-07T16:38:06;4.10;;;0.77;;
68432;SDS011;55412;51.350;17.056;2022-12-07T16:40:32;3.88;;;1.05;;
68432;SDS011;55412;51.350;17.056;2022-12-07T16:42:58;3.47;;;0.90;;
68432;SDS011;55412;51.350;17.056;2022-12-07T16:45:24;6.72;;;0.90;;
68432;SDS011;55412;51.350;17.056;2022-12-07T16:47:50;3.60;;;0.73;;
68432;SDS011;55412;51.350;17.056;2022-12-07T16:50:16;4.03;;;0.80;;
68432;SDS011;55412;51.350;17.056;2022-12-07T16:52:42;2.83;;;0.65;;
68432;SDS011;55412;51.350;17.056;2022-12-07T16:55:08;2.60;;;0.70;;
68432;SDS011;55412;51.350;17.056;2022-12-07T16:57:34;3.95;;;1.00;;
68432;SDS011;55412;51.350;17.056;2022-12-07T17:00:00;3.35;;;0.77;;
68432;SDS011;55412;51.350;17.056;2022-12-07T17:02:28;5.85;;;0.80;;